• Join FlightAware (Why Join?)
  • Login
  • US Flag GB Flag 
08:09 EDT


 

Airport Tracker/Info


-or-


 

Live Flight TrackerFlight Track Log ✈ SWA561 ✈ 14-Apr-2013 ✈ KLAX - KTUS

Flight Track Log - Related Links

Times and Time Zones

All times are in EDT time to prevent confusion due to time zone crossing. See the SWA561 flight status page for this flight to view local times or setup timezone preferences in your user account.

Time Position Orientation Groundspeed Altitude Reporting Facility
EDT Latitude Longitude Course Direction KTS MPH feet Rate Location/Type
21:52 33.8903 -118.5022 223° Southwest 237 273 4,500  Level Los Angeles Center
21:53 33.8153 -118.5400 203° Southwest 296 341 8,500 3,360 Climbing Los Angeles Center
21:54 33.7269 -118.5264 173° South 326 375 11,500 2,880 Climbing Los Angeles Center
21:55 33.6744 -118.4314 124° Southeast 367 422 14,500 2,580 Climbing Los Angeles Center
21:56 33.6744 -118.3067 90° East 385 443 16,900 2,760 Climbing Los Angeles Center
21:57 33.6719 -118.1508 91° East 399 459 20,300 2,820 Climbing Los Angeles Center
21:58 33.6700 -118.0128 91° East 412 474 22,800 2,340 Climbing Los Angeles Center
21:59 33.6678 -117.8667 91° East 435 501 25,200 2,280 Climbing Los Angeles Center
22:00 33.6656 -117.7142 91° East 455 524 27,500 2,100 Climbing Los Angeles Center
22:01 33.6617 -117.5600 92° East 462 532 29,600 1,740 Climbing Los Angeles Center
22:02 33.6592 -117.4011 91° East 476 548 31,200 1,740 Climbing Los Angeles Center
22:03 33.6447 -117.2047 95° East 496 571 33,200 2,040 Climbing Los Angeles Center
22:04 33.6225 -117.0450 99° East 488 562 35,500 1,620 Climbing Los Angeles Center
22:05 33.6003 -116.8875 100° East 482 555 36,900 1,320 Climbing Los Angeles Center
22:06 33.5789 -116.7089 98° East 484 557 38,500 960 Climbing Los Angeles Center
22:07 33.5500 -116.5161 100° East 488 562 39,000 240 Climbing Los Angeles Center
22:08 33.5278 -116.3547 99° East 488 562 39,000  Level Los Angeles Center
22:09 33.5067 -116.1942 99° East 486 559 39,000  Level Los Angeles Center
22:10 33.4828 -116.0342 100° East 485 558 39,000  Level Los Angeles Center
22:11 33.4592 -115.8753 100° East 483 556 39,000  Level Los Angeles Center
22:12 33.4361 -115.7158 100° East 484 557 39,000  Level Los Angeles Center
22:13 33.4136 -115.5567 100° East 484 557 39,000  Level Los Angeles Center
22:14 33.3883 -115.3978 101° East 485 558 39,000  Level Los Angeles Center
22:16 33.3600 -115.2081 100° East 483 556 39,000  Level Los Angeles Center
22:17 33.3358 -115.0494 100° East 485 558 39,000  Level Los Angeles Center
22:18 33.3133 -114.8883 99° East 490 564 39,000  Level Los Angeles Center
22:19 33.2881 -114.7297 101° East 486 559 39,000  Level Los Angeles Center
22:20 33.2647 -114.5550 99° East 488 562 39,000  Level Albuquerque Center
22:21 33.2403 -114.3969 100° East 486 559 39,000  Level Albuquerque Center
22:22 33.2144 -114.2381 101° East 486 559 39,000  Level Albuquerque Center
22:23 33.1878 -114.0806 101° East 486 559 39,000  Level Albuquerque Center
22:24 33.1625 -113.9222 101° East 485 558 39,000  Level Albuquerque Center
22:25 33.1378 -113.7642 101° East 485 558 39,000  Level Albuquerque Center
22:26 33.1119 -113.6061 101° East 485 558 39,000  Level Albuquerque Center
22:27 33.0872 -113.4478 101° East 485 558 39,000  Level Albuquerque Center
22:28 33.0606 -113.2906 101° East 484 557 39,000  Level Albuquerque Center
22:29 33.0347 -113.1333 101° East 483 556 39,000 -540 Level Albuquerque Center
22:30 33.0031 -112.9461 101° East 480 552 38,000 -1,200 Descending Albuquerque Center
22:31 32.9772 -112.7900 101° East 479 551 36,600 -2,100 Descending Albuquerque Center
22:32 32.9439 -112.6381 105° East 475 547 33,700 -2,880 Descending Albuquerque Center
22:33 32.8875 -112.4950 115° Southeast 475 547 30,800 -2,760 Descending Albuquerque Center
22:34 32.8331 -112.3533 115° Southeast 472 543 28,200 -2,340 Descending Albuquerque Center
22:35 32.7839 -112.2269 115° Southeast 464 534 26,100 -2,100 Descending Albuquerque Center
22:36 32.7339 -112.0944 114° Southeast 452 520 23,900 -2,400 Descending Albuquerque Center
22:37 32.6733 -111.9414 115° Southeast 435 501 21,200 -2,340 Descending Albuquerque Center
22:38 32.6247 -111.8222 116° Southeast 422 486 19,200 -2,220 Descending Albuquerque Center
22:39 32.5842 -111.7217 116° Southeast 407 468 17,300 -2,100 Descending Albuquerque Center
22:40 32.5169 -111.6258 130° Southeast 385 443 15,400 -1,860 Descending Albuquerque Center
22:40 32.5064 -111.6100 128° Southeast 388 447 15,000 -2,100 Descending Albuquerque Center
22:41 32.4417 -111.5447 140° Southeast 371 427 13,300 -2,100 Descending Albuquerque Center
22:41 32.4303 -111.5303 133° Southeast 373 429 12,900 -1,920 Descending Albuquerque Center
22:42 32.3667 -111.4664 140° Southeast 362 417 11,400 -1,860 Descending Albuquerque Center
22:42 32.3553 -111.4528 135° Southeast 363 418 11,000 -1,800 Descending Albuquerque Center
22:43 32.2983 -111.3989 141° Southeast 349 402 9,800 -1,680 Descending Albuquerque Center
22:43 32.2833 -111.3794 132° Southeast 346 398 9,300 -840 Descending Albuquerque Center
22:44 32.2328 -111.3256 138° Southeast 321 369 9,000 -720 Descending Albuquerque Center
22:44 32.2239 -111.3072 120° Southeast 313 360 8,600 -1,020 Descending Albuquerque Center
22:45 32.1856 -111.2475 127° Southeast 296 341 8,000 -600 Descending Albuquerque Center
22:45 32.1664 -111.2144 124° Southeast 294 338 8,000  Level Albuquerque Center
22:46 32.1414 -111.1739 126° Southeast 284 327 8,000  Level Albuquerque Center
22:46 32.1214 -111.1403 125° Southeast 283 326 8,000 -840 Level Albuquerque Center
22:47 32.0894 -111.0944 129° Southeast 282 325 7,200 -1,320 Descending Albuquerque Center
22:47 32.0767 -111.0631 116° Southeast 284 327 6,700 -1,200 Descending Albuquerque Center
22:48 32.0564 -111.0128 115° Southeast 280 322 6,000 -840 Descending Albuquerque Center
22:48 32.0467 -110.9797 109° East 278 320 5,900 -300 Descending Albuquerque Center
22:49 32.0200 -110.9472 134° Southeast 225 259 5,700 -540 Descending Albuquerque Center
22:49 32.0117 -110.9164 108° East 262 302 5,400 -900 Descending Albuquerque Center
22:50 32.0169 -110.8878 78° East 202 232 4,700 -1,020 Descending Albuquerque Center
22:51 32.0647 -110.8800 North 170 196 3,600 -900 Descending Albuquerque Center
22:52 32.0950 -110.9144 316° Northwest 149 171 2,800 -840 Descending Albuquerque Center